createdAt,value
2022-08-25T00:01:55.138Z,30.10
2022-08-25T00:04:22.671Z,30.10
2022-08-25T00:06:48.964Z,30.10
2022-08-25T00:09:18.654Z,30.10
2022-08-25T00:11:46.165Z,30.10
2022-08-25T00:14:17.284Z,30.10
2022-08-25T00:16:43.504Z,30.10
2022-08-25T00:19:17.321Z,30.10
2022-08-25T00:21:44.991Z,30.10
2022-08-25T00:24:12.719Z,30.10
2022-08-25T00:26:44.864Z,30.10
2022-08-25T00:29:11.601Z,30.10
2022-08-25T00:31:39.232Z,30.10
2022-08-25T00:34:12.606Z,30.10
2022-08-25T00:36:38.933Z,30.10
2022-08-25T00:39:06.200Z,30.10
2022-08-25T00:41:34.585Z,30.00
2022-08-25T00:44:04.245Z,30.10
2022-08-25T00:46:44.144Z,30.10
2022-08-25T00:50:00.718Z,30.10
2022-08-25T00:52:35.758Z,30.10
2022-08-25T00:55:10.584Z,30.10
2022-08-25T00:57:43.525Z,30.10
2022-08-25T01:00:25.565Z,30.10
2022-08-25T01:02:52.776Z,30.10
2022-08-25T01:05:20.086Z,30.10
2022-08-25T01:07:46.413Z,30.10
2022-08-25T01:10:13.130Z,30.10
2022-08-25T01:12:40.078Z,30.10
2022-08-25T01:15:08.581Z,30.10
2022-08-25T01:17:56.684Z,30.10
2022-08-25T01:20:29.361Z,30.10
2022-08-25T01:22:56.784Z,30.10
2022-08-25T01:25:50.897Z,30.10
2022-08-25T01:28:18.335Z,30.10
2022-08-25T01:30:44.505Z,30.10
2022-08-25T01:33:11.773Z,30.10
2022-08-25T01:35:39.876Z,30.10
2022-08-25T01:38:07.477Z,30.10
2022-08-25T01:40:35.059Z,30.10
2022-08-25T01:43:26.151Z,30.10
2022-08-25T01:45:52.389Z,30.10
2022-08-25T01:48:18.851Z,30.10
2022-08-25T01:50:44.953Z,30.10
2022-08-25T01:53:29.421Z,30.10
2022-08-25T01:56:04.943Z,30.10
2022-08-25T01:58:37.529Z,30.10
2022-08-25T02:01:08.474Z,30.00
2022-08-25T02:03:38.149Z,30.10
2022-08-25T02:06:10.430Z,30.10
2022-08-25T02:08:37.608Z,30.10
2022-08-25T02:11:04.594Z,30.10
2022-08-25T02:13:31.098Z,30.10
2022-08-25T02:15:58.737Z,30.10
2022-08-25T02:18:25.014Z,30.10
2022-08-25T02:20:51.165Z,30.10
2022-08-25T02:23:17.327Z,30.10
2022-08-25T02:25:43.751Z,30.10
2022-08-25T02:28:09.958Z,30.10
2022-08-25T02:30:39.540Z,30.10
2022-08-25T02:33:05.860Z,30.10
2022-08-25T02:35:32.230Z,30.10
2022-08-25T02:37:58.354Z,30.10
2022-08-25T02:40:24.484Z,30.10
2022-08-25T02:42:50.812Z,30.10
2022-08-25T02:45:17.996Z,30.10
2022-08-25T02:47:44.680Z,30.10
2022-08-25T02:50:11.495Z,30.10
2022-08-25T02:52:38.398Z,30.10
2022-08-25T02:55:07.732Z,30.10
2022-08-25T02:57:33.861Z,30.10
2022-08-25T03:00:00.033Z,30.10
2022-08-25T03:02:27.248Z,30.10
2022-08-25T03:04:53.934Z,30.10
2022-08-25T03:07:21.418Z,30.10
2022-08-25T03:09:47.637Z,30.10
2022-08-25T03:12:13.994Z,30.10
2022-08-25T03:14:41.758Z,30.10
2022-08-25T03:17:09.530Z,30.10
2022-08-25T03:19:35.763Z,30.10
2022-08-25T03:22:01.893Z,30.10
2022-08-25T03:24:28.376Z,30.10
2022-08-25T03:26:55.202Z,30.10
2022-08-25T03:29:23.313Z,30.10
2022-08-25T03:31:51.205Z,30.10
2022-08-25T03:34:18.919Z,30.10
2022-08-25T03:36:47.140Z,30.10
2022-08-25T03:39:13.923Z,30.10
2022-08-25T03:41:40.034Z,30.10
2022-08-25T03:44:09.327Z,30.10
2022-08-25T03:46:48.392Z,30.10
2022-08-25T03:49:18.297Z,30.10
2022-08-25T03:51:47.609Z,30.10
2022-08-25T03:54:16.695Z,30.10
2022-08-25T03:56:43.023Z,30.10
2022-08-25T03:59:09.354Z,30.10
2022-08-25T04:01:40.794Z,30.10
2022-08-25T04:04:08.948Z,30.10
2022-08-25T04:06:35.122Z,30.10
2022-08-25T04:09:01.457Z,30.10
2022-08-25T04:11:28.026Z,30.10
2022-08-25T04:13:57.014Z,30.10
2022-08-25T04:16:26.343Z,30.10
2022-08-25T04:18:54.533Z,30.10
2022-08-25T04:21:21.818Z,30.10
2022-08-25T04:23:50.581Z,30.10
2022-08-25T04:26:38.876Z,30.10
2022-08-25T04:29:06.743Z,30.10
2022-08-25T04:31:33.615Z,30.10
2022-08-25T04:34:02.930Z,30.10
2022-08-25T04:36:29.413Z,30.10
2022-08-25T04:38:55.654Z,30.10
2022-08-25T04:41:23.946Z,30.10
2022-08-25T04:43:51.093Z,30.10
2022-08-25T04:46:21.287Z,30.10
2022-08-25T04:48:48.898Z,30.10
2022-08-25T04:51:19.053Z,30.10
2022-08-25T04:53:45.709Z,30.10
2022-08-25T04:56:14.021Z,30.10
2022-08-25T04:58:40.699Z,30.10
2022-08-25T05:01:15.096Z,30.10
2022-08-25T05:03:41.579Z,30.10
2022-08-25T05:06:08.125Z,30.10
2022-08-25T05:08:34.829Z,30.10
2022-08-25T05:11:08.600Z,30.10
2022-08-25T05:13:35.175Z,30.10
2022-08-25T05:16:01.917Z,30.00
2022-08-25T05:18:31.203Z,30.00
2022-08-25T05:21:02.966Z,30.00
2022-08-25T05:23:29.405Z,30.00
2022-08-25T05:25:55.925Z,29.90
2022-08-25T05:28:22.328Z,29.90
2022-08-25T05:30:49.519Z,29.90
2022-08-25T05:33:16.336Z,29.90
2022-08-25T05:35:42.906Z,29.90
2022-08-25T05:38:15.242Z,29.90
2022-08-25T05:40:41.860Z,29.80
2022-08-25T05:43:08.238Z,29.80
2022-08-25T05:45:34.970Z,29.80
2022-08-25T05:48:01.390Z,29.80
2022-08-25T05:50:27.753Z,29.80
2022-08-25T05:52:53.856Z,29.80
2022-08-25T05:55:20.123Z,29.80
2022-08-25T05:57:46.502Z,29.70
2022-08-25T06:00:12.923Z,29.80
2022-08-25T06:02:47.839Z,29.70
2022-08-25T06:05:17.223Z,29.70
2022-08-25T06:07:45.241Z,29.70
2022-08-25T06:10:12.781Z,29.70
2022-08-25T06:12:41.175Z,29.70
2022-08-25T06:15:16.071Z,29.70
2022-08-25T06:17:42.605Z,29.70
2022-08-25T06:20:12.249Z,29.70
2022-08-25T06:22:39.385Z,29.70
2022-08-25T06:25:06.584Z,29.70
2022-08-25T06:27:33.393Z,29.70
2022-08-25T06:30:07.622Z,29.70
2022-08-25T06:32:38.723Z,29.60
2022-08-25T06:35:08.040Z,29.70
2022-08-25T06:37:34.497Z,29.70
2022-08-25T06:40:00.923Z,29.70
2022-08-25T06:42:27.734Z,29.70
2022-08-25T06:44:53.821Z,29.60
2022-08-25T06:47:20.091Z,29.60
2022-08-25T06:49:46.788Z,29.60
2022-08-25T06:52:13.478Z,29.60
2022-08-25T06:54:40.573Z,29.60
2022-08-25T06:57:07.018Z,29.60
2022-08-25T06:59:34.271Z,29.60
2022-08-25T07:02:03.248Z,29.60
2022-08-25T07:04:30.790Z,29.60
2022-08-25T07:06:56.900Z,29.60
2022-08-25T07:09:23.002Z,29.60
2022-08-25T07:11:49.105Z,29.60
2022-08-25T07:14:16.848Z,29.60
2022-08-25T07:16:48.774Z,29.60
2022-08-25T07:19:16.033Z,29.60
2022-08-25T07:21:46.206Z,29.60
2022-08-25T07:24:13.759Z,29.60
2022-08-25T07:26:41.576Z,29.50
2022-08-25T07:29:11.914Z,29.60
2022-08-25T07:31:38.333Z,29.60
2022-08-25T07:34:25.542Z,29.60
2022-08-25T07:36:53.106Z,29.60
2022-08-25T07:39:19.620Z,29.60
2022-08-25T07:41:48.722Z,29.60
2022-08-25T07:44:19.817Z,29.60
2022-08-25T07:46:46.027Z,29.60
2022-08-25T07:49:16.679Z,29.60
2022-08-25T07:52:05.591Z,29.60
2022-08-25T07:54:33.864Z,29.60
2022-08-25T07:57:04.908Z,29.60
2022-08-25T07:59:39.585Z,29.60
2022-08-25T08:02:17.766Z,29.50
2022-08-25T08:04:47.886Z,29.50
2022-08-25T08:07:17.091Z,29.50
2022-08-25T08:09:43.553Z,29.50
2022-08-25T08:12:09.741Z,29.50
2022-08-25T08:14:35.821Z,29.50
2022-08-25T08:17:07.444Z,29.50
2022-08-25T08:19:34.257Z,29.50
2022-08-25T08:22:02.334Z,29.50
2022-08-25T08:24:44.281Z,29.50
2022-08-25T08:27:16.447Z,29.50
2022-08-25T08:29:45.226Z,29.60
2022-08-25T08:32:14.515Z,29.50
2022-08-25T08:34:41.273Z,29.50
2022-08-25T08:37:08.589Z,29.50
2022-08-25T08:39:37.501Z,29.50
2022-08-25T08:42:18.350Z,29.50
2022-08-25T08:44:44.379Z,29.50
2022-08-25T08:47:29.993Z,29.50
2022-08-25T08:50:17.576Z,29.50
2022-08-25T08:53:05.037Z,29.50
2022-08-25T08:55:42.044Z,29.50
2022-08-25T08:58:32.150Z,29.50
2022-08-25T09:01:00.989Z,29.50
2022-08-25T09:03:31.390Z,29.50
2022-08-25T09:06:02.813Z,29.50
2022-08-25T09:08:30.358Z,29.50
2022-08-25T09:11:10.214Z,29.50
2022-08-25T09:14:04.507Z,29.50
2022-08-25T09:16:56.297Z,29.50
2022-08-25T09:20:05.589Z,29.50
2022-08-25T09:23:23.308Z,29.50
2022-08-25T09:26:08.293Z,29.50
2022-08-25T09:28:52.669Z,29.50
2022-08-25T09:31:28.846Z,29.50
2022-08-25T09:33:59.267Z,29.50
2022-08-25T09:36:26.607Z,29.50
2022-08-25T09:38:53.616Z,29.50
2022-08-25T09:41:51.671Z,29.50
2022-08-25T09:44:25.880Z,29.50
2022-08-25T09:47:03.111Z,29.50
2022-08-25T09:49:39.010Z,29.50
2022-08-25T09:52:31.186Z,29.50
2022-08-25T09:55:30.572Z,29.50
2022-08-25T09:57:58.898Z,29.50
2022-08-25T10:00:33.623Z,29.50
2022-08-25T10:03:18.102Z,29.50
2022-08-25T10:05:56.102Z,29.50
2022-08-25T10:08:30.858Z,29.50
2022-08-25T10:10:59.226Z,29.50
2022-08-25T10:13:41.863Z,29.50
2022-08-25T10:16:25.511Z,29.50
2022-08-25T10:19:13.870Z,29.50
2022-08-25T10:21:42.472Z,29.40
2022-08-25T10:24:11.316Z,29.50
2022-08-25T10:26:52.440Z,29.50
2022-08-25T10:29:44.282Z,29.50
2022-08-25T10:32:25.737Z,29.40
2022-08-25T10:34:57.805Z,29.40
2022-08-25T10:37:38.274Z,29.50
2022-08-25T10:40:22.060Z,29.40
2022-08-25T10:43:01.636Z,29.50
2022-08-25T10:45:44.798Z,29.40
2022-08-25T10:48:16.878Z,29.40
2022-08-25T10:50:50.673Z,29.40
2022-08-25T10:53:34.631Z,29.40
2022-08-25T10:56:17.161Z,29.50
2022-08-25T10:58:59.175Z,29.50
2022-08-25T11:01:53.604Z,29.50
2022-08-25T11:04:39.435Z,29.50
2022-08-25T11:07:18.957Z,29.50
2022-08-25T11:09:50.490Z,29.50
2022-08-25T11:12:34.259Z,29.50
2022-08-25T11:15:24.629Z,29.50
2022-08-25T11:18:14.864Z,29.50
2022-08-25T11:21:00.338Z,29.60
2022-08-25T11:23:59.163Z,29.50
2022-08-25T11:26:36.828Z,29.50
2022-08-25T11:29:16.451Z,29.60
2022-08-25T11:31:52.768Z,29.60
2022-08-25T11:34:20.949Z,29.60
2022-08-25T11:36:54.491Z,29.60
2022-08-25T11:39:45.298Z,29.60
2022-08-25T11:42:42.370Z,29.60
2022-08-25T11:45:24.197Z,29.60
2022-08-25T11:48:26.847Z,29.60
2022-08-25T11:51:09.565Z,29.60
2022-08-25T11:53:37.641Z,29.60
2022-08-25T11:56:28.561Z,29.60
2022-08-25T11:58:54.701Z,29.60
2022-08-25T12:01:38.886Z,29.60
2022-08-25T12:04:14.933Z,29.60
2022-08-25T12:07:06.927Z,29.60
2022-08-25T12:09:49.247Z,29.60
2022-08-25T12:12:36.898Z,29.60
2022-08-25T12:15:40.480Z,29.60
2022-08-25T12:18:09.651Z,29.60
2022-08-25T12:20:52.851Z,29.60
2022-08-25T12:23:28.926Z,29.60
2022-08-25T12:26:11.851Z,29.60
2022-08-25T12:29:09.921Z,29.50
2022-08-25T12:32:06.639Z,29.50
2022-08-25T12:34:45.855Z,29.50
2022-08-25T12:37:18.514Z,29.50
2022-08-25T12:39:50.593Z,29.50
2022-08-25T12:42:34.022Z,29.50
2022-08-25T12:45:23.346Z,29.50
2022-08-25T12:47:52.058Z,29.50
2022-08-25T12:50:25.715Z,29.50
2022-08-25T12:52:53.910Z,29.50
2022-08-25T12:55:25.626Z,29.50
2022-08-25T12:58:00.301Z,29.50
2022-08-25T13:00:47.624Z,29.50
2022-08-25T13:03:57.642Z,29.50
2022-08-25T13:06:32.279Z,29.50
2022-08-25T13:09:30.145Z,29.50
2022-08-25T13:12:12.082Z,29.50
2022-08-25T13:14:43.861Z,29.50
2022-08-25T13:17:11.162Z,29.50
2022-08-25T13:19:38.001Z,29.50
2022-08-25T13:22:16.559Z,29.50
2022-08-25T13:24:45.466Z,29.50
2022-08-25T13:27:27.920Z,29.50
2022-08-25T13:29:57.423Z,29.50
2022-08-25T13:32:35.397Z,29.50
2022-08-25T13:35:20.192Z,29.50
2022-08-25T13:37:46.932Z,29.50
2022-08-25T13:40:16.336Z,29.50
2022-08-25T13:42:52.974Z,29.50
2022-08-25T13:45:23.981Z,29.50
2022-08-25T13:47:56.093Z,29.50
2022-08-25T13:50:26.421Z,29.50
2022-08-25T13:52:56.320Z,29.50
2022-08-25T13:55:50.713Z,29.50
2022-08-25T13:58:24.189Z,29.50
2022-08-25T14:01:22.952Z,29.50
2022-08-25T14:03:55.025Z,29.50
2022-08-25T14:06:25.383Z,29.50
2022-08-25T14:08:55.068Z,29.50
2022-08-25T14:11:29.938Z,29.50
2022-08-25T14:14:07.839Z,29.50
2022-08-25T14:16:47.683Z,29.50
2022-08-25T14:19:22.535Z,29.50
2022-08-25T14:21:49.871Z,29.50
2022-08-25T14:24:23.252Z,29.50
2022-08-25T14:26:54.052Z,29.50
2022-08-25T14:29:21.476Z,29.50
2022-08-25T14:31:48.239Z,29.50
2022-08-25T14:34:35.641Z,29.50
2022-08-25T14:37:05.852Z,29.50
2022-08-25T14:39:34.509Z,29.50
2022-08-25T14:42:00.598Z,29.50
2022-08-25T14:44:27.270Z,29.50
2022-08-25T14:46:55.837Z,29.50
2022-08-25T14:49:29.019Z,29.50
2022-08-25T14:51:57.074Z,29.50
2022-08-25T14:54:26.738Z,29.50
2022-08-25T14:56:53.675Z,29.50
2022-08-25T14:59:19.961Z,29.50
2022-08-25T15:01:46.483Z,29.50
2022-08-25T15:04:19.894Z,29.50
2022-08-25T15:06:47.828Z,29.50
2022-08-25T15:09:15.830Z,29.50
2022-08-25T15:11:45.631Z,29.50
2022-08-25T15:14:15.544Z,29.50
2022-08-25T15:16:48.037Z,29.50
2022-08-25T15:19:17.990Z,29.50
2022-08-25T15:21:45.646Z,29.50
2022-08-25T15:24:13.010Z,29.50
2022-08-25T15:29:23.786Z,29.50
2022-08-25T15:31:50.284Z,29.50
2022-08-25T15:34:17.013Z,29.50
2022-08-25T15:36:43.217Z,29.50
2022-08-25T15:39:09.969Z,29.50
2022-08-25T15:41:37.206Z,29.50
2022-08-25T15:44:06.053Z,29.50
2022-08-25T15:46:35.849Z,29.50
2022-08-25T15:49:02.576Z,29.50
2022-08-25T15:51:28.841Z,29.50
2022-08-25T15:53:55.954Z,29.50
2022-08-25T15:56:26.880Z,29.50
2022-08-25T15:58:54.713Z,29.50
2022-08-25T16:01:23.928Z,29.50
2022-08-25T16:03:52.089Z,29.50
2022-08-25T16:06:18.857Z,29.50
2022-08-25T16:08:45.090Z,29.50
2022-08-25T16:11:20.293Z,29.50
2022-08-25T16:13:48.665Z,29.50
2022-08-25T16:16:16.231Z,29.50
2022-08-25T16:18:43.432Z,29.50
2022-08-25T16:21:15.314Z,29.50
2022-08-25T16:23:41.477Z,29.50
2022-08-25T16:26:10.017Z,29.40
2022-08-25T16:28:40.650Z,29.50
2022-08-25T16:31:11.896Z,29.50
2022-08-25T16:33:39.080Z,29.50
2022-08-25T16:36:13.146Z,29.50
2022-08-25T16:38:40.633Z,29.50
2022-08-25T16:41:13.155Z,29.50
2022-08-25T16:43:40.449Z,29.50
2022-08-25T16:46:10.189Z,29.50
2022-08-25T16:48:37.912Z,29.50
2022-08-25T16:51:11.662Z,29.50
2022-08-25T16:53:57.831Z,29.50
2022-08-25T16:56:24.444Z,29.50
2022-08-25T16:58:58.872Z,29.50
2022-08-25T17:01:26.764Z,29.50
2022-08-25T17:03:55.194Z,29.50
2022-08-25T17:06:23.641Z,29.50
2022-08-25T17:08:50.224Z,29.60
2022-08-25T17:11:19.618Z,29.60
2022-08-25T17:13:49.758Z,29.70
2022-08-25T17:16:17.500Z,29.70
2022-08-25T17:18:47.530Z,29.70
2022-08-25T17:21:24.030Z,29.70
2022-08-25T17:23:52.532Z,29.70
2022-08-25T17:26:19.202Z,29.80
2022-08-25T17:28:45.365Z,29.80
2022-08-25T17:31:13.851Z,29.80
2022-08-25T17:33:40.538Z,29.80
2022-08-25T17:36:06.946Z,29.80
2022-08-25T17:38:34.005Z,29.80
2022-08-25T17:41:02.945Z,29.80
2022-08-25T17:43:33.154Z,29.80
2022-08-25T17:45:59.831Z,29.80
2022-08-25T17:48:27.194Z,29.80
2022-08-25T17:50:54.934Z,29.80
2022-08-25T17:53:21.675Z,29.80
2022-08-25T17:55:58.495Z,29.90
2022-08-25T17:58:24.575Z,29.90
2022-08-25T18:00:54.242Z,29.90
2022-08-25T18:03:20.599Z,29.90
2022-08-25T18:05:47.105Z,29.90
2022-08-25T18:08:15.393Z,29.90
2022-08-25T18:10:44.454Z,29.90
2022-08-25T18:13:10.748Z,29.90
2022-08-25T18:15:38.449Z,29.90
2022-08-25T18:18:09.163Z,29.90
2022-08-25T18:20:36.178Z,29.90
2022-08-25T18:23:09.011Z,29.90
2022-08-25T18:25:35.935Z,29.90
2022-08-25T18:28:02.441Z,29.90
2022-08-25T18:30:28.869Z,29.90
2022-08-25T18:32:55.037Z,29.90
2022-08-25T18:35:21.763Z,29.90
2022-08-25T18:38:11.787Z,30.00
2022-08-25T18:40:38.962Z,30.00
2022-08-25T18:43:07.813Z,30.00
2022-08-25T18:45:41.085Z,30.00
2022-08-25T18:48:08.479Z,29.90
2022-08-25T18:50:37.827Z,30.00
2022-08-25T18:53:04.304Z,30.00
2022-08-25T18:55:33.403Z,30.00
2022-08-25T18:57:59.807Z,30.00
2022-08-25T19:00:29.407Z,29.90
2022-08-25T19:02:57.475Z,30.00
2022-08-25T19:05:36.442Z,30.00
2022-08-25T19:08:05.952Z,30.00
2022-08-25T19:10:35.261Z,30.00
2022-08-25T19:13:07.876Z,30.00
2022-08-25T19:15:35.845Z,30.00
2022-08-25T19:18:02.056Z,30.00
2022-08-25T19:20:31.166Z,30.00
2022-08-25T19:22:57.701Z,30.00
2022-08-25T19:25:24.535Z,30.00
2022-08-25T19:27:51.782Z,30.00
2022-08-25T19:30:20.687Z,30.00
2022-08-25T19:32:47.531Z,30.00
2022-08-25T19:35:41.081Z,30.00
2022-08-25T19:38:33.483Z,30.00
2022-08-25T19:40:59.106Z,30.00
2022-08-25T19:43:26.718Z,30.00
2022-08-25T19:45:52.873Z,30.00
2022-08-25T19:48:19.033Z,30.00
2022-08-25T19:50:45.230Z,30.00
2022-08-25T19:53:11.379Z,30.00
2022-08-25T19:55:42.086Z,30.00
2022-08-25T19:58:10.528Z,30.00
2022-08-25T20:00:39.235Z,30.00
2022-08-25T20:03:06.886Z,30.00
2022-08-25T20:05:34.622Z,30.00
2022-08-25T20:08:01.193Z,30.00
2022-08-25T20:10:31.002Z,30.00
2022-08-25T20:12:57.697Z,30.10
2022-08-25T20:15:24.131Z,30.10
2022-08-25T20:17:50.335Z,30.00
2022-08-25T20:20:22.851Z,30.00
2022-08-25T20:22:49.189Z,30.00
2022-08-25T20:25:22.517Z,30.00
2022-08-25T20:27:52.950Z,30.00
2022-08-25T20:30:23.667Z,30.00
2022-08-25T20:32:51.249Z,30.10
2022-08-25T20:35:18.105Z,30.10
2022-08-25T20:37:46.622Z,30.10
2022-08-25T20:40:16.255Z,30.10
2022-08-25T20:42:43.623Z,30.00
2022-08-25T20:45:12.751Z,30.00
2022-08-25T20:47:39.327Z,30.10
2022-08-25T20:50:07.058Z,30.00
2022-08-25T20:52:33.900Z,30.10
2022-08-25T20:55:01.141Z,30.10
2022-08-25T20:57:27.297Z,30.10
2022-08-25T20:59:57.128Z,30.10
2022-08-25T21:02:24.973Z,30.10
2022-08-25T21:04:52.437Z,30.10
2022-08-25T21:07:19.609Z,30.10
2022-08-25T21:09:46.389Z,30.10
2022-08-25T21:12:12.611Z,30.10
2022-08-25T21:14:40.997Z,30.10
2022-08-25T21:17:10.677Z,30.10
2022-08-25T21:19:38.324Z,30.10
2022-08-25T21:22:06.899Z,30.10
2022-08-25T21:24:33.444Z,30.10
2022-08-25T21:26:59.634Z,30.10
2022-08-25T21:29:29.349Z,30.10
2022-08-25T21:31:58.000Z,30.10
2022-08-25T21:34:25.236Z,30.10
2022-08-25T21:36:56.958Z,30.10
2022-08-25T21:39:25.608Z,30.10
2022-08-25T21:41:51.999Z,30.10
2022-08-25T21:44:19.960Z,30.10
2022-08-25T21:46:53.835Z,30.10
2022-08-25T21:49:21.764Z,30.10
2022-08-25T21:51:59.348Z,30.10
2022-08-25T21:54:27.114Z,30.10
2022-08-25T21:57:00.509Z,30.10
2022-08-25T21:59:32.910Z,30.10
2022-08-25T22:02:01.580Z,30.10
2022-08-25T22:04:29.012Z,30.10
2022-08-25T22:06:55.349Z,30.10
2022-08-25T22:09:24.410Z,30.10
2022-08-25T22:11:50.705Z,30.10
2022-08-25T22:14:17.462Z,30.10
2022-08-25T22:16:43.623Z,30.10
2022-08-25T22:19:12.283Z,30.10
2022-08-25T22:21:41.214Z,30.10
2022-08-25T22:24:07.560Z,30.10
2022-08-25T22:26:34.126Z,30.10
2022-08-25T22:29:01.416Z,30.10
2022-08-25T22:31:28.641Z,30.10
2022-08-25T22:33:56.607Z,30.10
2022-08-25T22:36:31.126Z,30.10
2022-08-25T22:38:58.176Z,30.10
2022-08-25T22:41:26.888Z,30.10
2022-08-25T22:43:55.995Z,30.10
2022-08-25T22:46:23.268Z,30.10
2022-08-25T22:48:51.472Z,30.10
2022-08-25T22:51:24.338Z,30.10
2022-08-25T22:53:50.953Z,30.10
2022-08-25T22:56:20.653Z,30.10
2022-08-25T22:58:51.658Z,30.10
2022-08-25T23:01:19.669Z,30.10
2022-08-25T23:03:46.061Z,30.10
2022-08-25T23:06:19.692Z,30.10
2022-08-25T23:08:48.857Z,30.10
2022-08-25T23:11:16.421Z,30.10
2022-08-25T23:13:42.569Z,30.10
2022-08-25T23:16:09.988Z,30.10
2022-08-25T23:18:40.594Z,30.10
2022-08-25T23:21:28.044Z,30.10
2022-08-25T23:23:54.210Z,30.10
2022-08-25T23:26:21.499Z,30.10
2022-08-25T23:28:48.629Z,30.10
2022-08-25T23:31:15.770Z,30.10
2022-08-25T23:33:42.278Z,30.10
2022-08-25T23:36:14.239Z,30.10
2022-08-25T23:38:44.024Z,30.10
2022-08-25T23:41:14.552Z,30.10
2022-08-25T23:43:41.624Z,30.10
2022-08-25T23:46:08.084Z,30.20
2022-08-25T23:48:34.233Z,30.10
2022-08-25T23:51:00.857Z,30.10
2022-08-25T23:53:27.590Z,30.10
2022-08-25T23:55:55.247Z,30.10
2022-08-25T23:58:21.538Z,30.10
